Beards Fork, West Virginia
Current Conditions -  °F | °C
As of 11:30 AM on Monday 26 Jan 2015 (Local Time) from KBKW Reporting Station
Light Rain Light Rain  
Wind Chill: 37°   Ceiling: 900
Heat Index: 37°   Visibility: 10mi
Dew Point: 34°   Wind: 3mph
Humidity: 89%   Direction: 230°SW
Pressure: 29.64"   Gusts: NA
Location:  38.096°N, 81.2492°W
Report Text: KBKW 261630Z AUTO 23003KT 10SM -RA OVC009 03/01 A2964 RMK AO2 RAE1555B07SNB1555E07 P0002 T00280011
Loading
Personal Weather Stations






























Interactive Weather Map New forecast layout! Learn more

10-Day Weather Forecast

Advertisements
Track Severe Weather on mobile